createdAt,value
2022-07-27T18:10:00.000Z,18.28
2022-07-27T18:12:00.000Z,18.0
2022-07-27T18:14:00.000Z,18.0
2022-07-27T18:16:00.000Z,18.0
2022-07-27T18:18:00.000Z,17.78
2022-07-27T18:20:00.000Z,17.67
2022-07-27T18:22:00.000Z,17.56
2022-07-27T18:24:00.000Z,17.56
2022-07-27T18:26:00.000Z,17.5
2022-07-27T18:28:00.000Z,17.39
2022-07-27T18:30:00.000Z,17.39
2022-07-27T18:32:00.000Z,17.39
2022-07-27T18:34:00.000Z,17.28
2022-07-27T18:36:00.000Z,17.17
2022-07-27T18:38:00.000Z,17.06
2022-07-27T18:40:00.000Z,17.06
2022-07-27T18:42:00.000Z,17.06
2022-07-27T18:44:00.000Z,16.89
2022-07-27T18:46:00.000Z,16.89
2022-07-27T18:48:00.000Z,16.89
2022-07-27T18:50:00.000Z,16.89
2022-07-27T18:52:00.000Z,16.89
2022-07-27T18:54:00.000Z,16.89
2022-07-27T18:56:00.000Z,16.89
2022-07-27T18:58:00.000Z,16.78
2022-07-27T19:00:00.000Z,16.78
2022-07-27T19:02:00.000Z,16.78
2022-07-27T19:04:00.000Z,16.67
2022-07-27T19:06:00.000Z,16.56
2022-07-27T19:08:00.000Z,16.39
2022-07-27T19:10:00.000Z,16.17
2022-07-27T19:12:00.000Z,16.17
2022-07-27T19:14:00.000Z,16.0
2022-07-27T19:16:00.000Z,16.0
2022-07-27T19:18:00.000Z,15.89
2022-07-27T19:20:00.000Z,15.78
2022-07-27T19:22:00.000Z,15.78
2022-07-27T19:24:00.000Z,15.67
2022-07-27T19:26:00.000Z,15.56
2022-07-27T19:28:00.000Z,15.56
2022-07-27T19:30:00.000Z,15.39
2022-07-27T19:32:00.000Z,15.39
2022-07-27T19:34:00.000Z,15.39
2022-07-27T19:36:00.000Z,15.39
2022-07-27T19:38:00.000Z,15.28
2022-07-27T19:40:00.000Z,15.17
2022-07-27T19:42:00.000Z,15.06
2022-07-27T19:44:00.000Z,15.06
2022-07-27T19:46:00.000Z,15.06
2022-07-27T19:48:00.000Z,14.78
2022-07-27T19:50:00.000Z,14.67
2022-07-27T19:52:00.000Z,14.67
2022-07-27T19:54:00.000Z,14.56
2022-07-27T19:56:00.000Z,14.5
2022-07-27T19:58:00.000Z,14.39
2022-07-27T20:00:00.000Z,14.39
2022-07-27T20:02:00.000Z,14.28
2022-07-27T20:04:00.000Z,14.06
2022-07-27T20:06:00.000Z,14.06
2022-07-27T20:08:00.000Z,14.0
2022-07-27T20:10:00.000Z,14.0
2022-07-27T20:12:00.000Z,13.78
2022-07-27T20:14:00.000Z,13.67
2022-07-27T20:16:00.000Z,13.56
2022-07-27T20:18:00.000Z,13.56
2022-07-27T20:20:00.000Z,13.67
2022-07-27T20:22:00.000Z,13.67
2022-07-27T20:24:00.000Z,13.5
2022-07-27T20:26:00.000Z,13.28
2022-07-27T20:28:00.000Z,13.06
2022-07-27T20:30:00.000Z,13.0
2022-07-27T20:32:00.000Z,12.89
2022-07-27T20:34:00.000Z,12.78
2022-07-27T20:36:00.000Z,12.67
2022-07-27T20:38:00.000Z,12.67
2022-07-27T20:40:00.000Z,12.67
2022-07-27T20:42:00.000Z,12.78
2022-07-27T20:44:00.000Z,12.56
2022-07-27T20:46:00.000Z,12.5
2022-07-27T20:48:00.000Z,12.28
2022-07-27T20:50:00.000Z,12.17
2022-07-27T20:52:00.000Z,12.0
2022-07-27T20:54:00.000Z,11.78
2022-07-27T20:56:00.000Z,11.56
2022-07-27T20:58:00.000Z,11.5
2022-07-27T21:00:00.000Z,11.5
2022-07-27T21:02:00.000Z,11.28
2022-07-27T21:04:00.000Z,11.17
2022-07-27T21:06:00.000Z,11.06
2022-07-27T21:08:00.000Z,11.0
2022-07-27T21:10:00.000Z,10.89
2022-07-27T21:12:00.000Z,10.67
2022-07-27T21:14:00.000Z,10.56
2022-07-27T21:16:00.000Z,10.56
2022-07-27T21:18:00.000Z,10.5
2022-07-27T21:20:00.000Z,10.39
2022-07-27T21:22:00.000Z,10.39
2022-07-27T21:24:00.000Z,10.39
2022-07-27T21:26:00.000Z,10.39
2022-07-27T21:28:00.000Z,10.28
2022-07-27T21:30:00.000Z,10.17
2022-07-27T21:32:00.000Z,10.17
2022-07-27T21:34:00.000Z,10.06
2022-07-27T21:36:00.000Z,10.06
2022-07-27T21:38:00.000Z,10.0
2022-07-27T21:40:00.000Z,9.89
2022-07-27T21:42:00.000Z,9.67
2022-07-27T21:44:00.000Z,9.5
2022-07-27T21:46:00.000Z,9.5
2022-07-27T21:48:00.000Z,9.5
2022-07-27T21:50:00.000Z,9.5
2022-07-27T21:52:00.000Z,9.5
2022-07-27T21:54:00.000Z,9.5
2022-07-27T21:56:00.000Z,9.39
2022-07-27T21:58:00.000Z,9.28
2022-07-27T22:00:00.000Z,9.06
2022-07-27T22:02:00.000Z,9.0
2022-07-27T22:04:00.000Z,9.0
2022-07-27T22:06:00.000Z,9.0
2022-07-27T22:08:00.000Z,9.0
2022-07-27T22:10:00.000Z,8.89
2022-07-27T22:12:00.000Z,8.89
2022-07-27T22:14:00.000Z,8.89
2022-07-27T22:16:00.000Z,9.0
2022-07-27T22:18:00.000Z,8.78
2022-07-27T22:20:00.000Z,8.78
2022-07-27T22:22:00.000Z,8.67
2022-07-27T22:24:00.000Z,8.67
2022-07-27T22:26:00.000Z,8.78
2022-07-27T22:28:00.000Z,8.67
2022-07-27T22:30:00.000Z,8.56
2022-07-27T22:32:00.000Z,8.39
2022-07-27T22:34:00.000Z,8.39
2022-07-27T22:36:00.000Z,8.39
2022-07-27T22:38:00.000Z,8.28
2022-07-27T22:40:00.000Z,8.28
2022-07-27T22:42:00.000Z,8.28
2022-07-27T22:44:00.000Z,8.28
2022-07-27T22:46:00.000Z,8.39
2022-07-27T22:48:00.000Z,8.39
2022-07-27T22:50:00.000Z,8.39
2022-07-27T22:52:00.000Z,8.39
2022-07-27T22:54:00.000Z,8.28
2022-07-27T22:56:00.000Z,8.17
2022-07-27T22:58:00.000Z,8.17
2022-07-27T23:00:00.000Z,8.17
2022-07-27T23:02:00.000Z,8.17
2022-07-27T23:04:00.000Z,8.0
2022-07-27T23:06:00.000Z,7.89
2022-07-27T23:08:00.000Z,7.89
2022-07-27T23:10:00.000Z,7.89
2022-07-27T23:12:00.000Z,8.0
2022-07-27T23:14:00.000Z,8.0
2022-07-27T23:16:00.000Z,8.0
2022-07-27T23:18:00.000Z,8.0
2022-07-27T23:20:00.000Z,8.0
2022-07-27T23:22:00.000Z,7.89
2022-07-27T23:24:00.000Z,7.78
2022-07-27T23:26:00.000Z,7.67
2022-07-27T23:28:00.000Z,7.67
2022-07-27T23:30:00.000Z,7.56
2022-07-27T23:32:00.000Z,7.56
2022-07-27T23:34:00.000Z,7.5
2022-07-27T23:36:00.000Z,7.39
2022-07-27T23:38:00.000Z,7.39
2022-07-27T23:40:00.000Z,7.39
2022-07-27T23:42:00.000Z,7.5
2022-07-27T23:44:00.000Z,7.39
2022-07-27T23:46:00.000Z,7.39
2022-07-27T23:48:00.000Z,7.28
2022-07-27T23:50:00.000Z,7.06
2022-07-27T23:52:00.000Z,7.0
2022-07-27T23:54:00.000Z,6.89
2022-07-27T23:56:00.000Z,6.89
2022-07-27T23:58:00.000Z,6.78
